Time;durP1;ratioP1;P1;durP2;ratioP2;P2;SDS_P1;SDS_P2;PMS_P1;PMS_P2;Temp;Humidity;BMP_temperature;BMP_pressure;BME280_temperature;BME280_humidity;BME280_pressure;Samples;Min_cycle;Max_cycle;Signal;HPM_P1;HPM_P2
2021/11/13 00:00:13;;;;;;;33.95;13.13;;;;;;;;;;5032702;28;20014;-83
2021/11/13 00:02:38;;;;;;;21.75;8.10;;;;;;;;;;5032449;28;20032;-83
2021/11/13 00:05:04;;;;;;;30.05;12.57;;;;;;;;;;5033893;28;20021;-83
2021/11/13 00:07:29;;;;;;;28.60;12.68;;;;;;;;;;5032498;28;20448;-83
2021/11/13 00:09:54;;;;;;;28.00;12.65;;;;;;;;;;5031681;28;20021;-83
2021/11/13 00:12:20;;;;;;;25.23;12.32;;;;;;;;;;5032782;28;20029;-83
2021/11/13 00:14:46;;;;;;;21.58;9.60;;;;;;;;;;5032154;28;20385;-83
2021/11/13 00:17:12;;;;;;;29.83;11.07;;;;;;;;;;5065745;28;20083;-83
2021/11/13 00:19:37;;;;;;;28.23;10.38;;;;;;;;;;5032523;28;20030;-83
2021/11/13 00:22:03;;;;;;;26.10;13.00;;;;;;;;;;5033354;28;20027;-83
2021/11/13 00:24:28;;;;;;;28.77;12.55;;;;;;;;;;5030901;28;20064;-83
2021/11/13 00:26:53;;;;;;;31.10;13.32;;;;;;;;;;5030133;28;20107;-83
2021/11/13 00:29:19;;;;;;;28.17;11.65;;;;;;;;;;5030061;28;20032;-83
2021/11/13 00:31:44;;;;;;;31.13;11.98;;;;;;;;;;5032049;28;20021;-83
2021/11/13 00:34:09;;;;;;;34.67;12.90;;;;;;;;;;5032340;28;20025;-84
2021/11/13 00:36:34;;;;;;;31.35;13.75;;;;;;;;;;5032226;28;20025;-83
2021/11/13 00:39:00;;;;;;;32.17;14.55;;;;;;;;;;5031813;28;20460;-83
2021/11/13 00:41:25;;;;;;;33.67;15.30;;;;;;;;;;5033229;28;20013;-83
2021/11/13 00:43:50;;;;;;;32.17;13.27;;;;;;;;;;5031685;28;20460;-83
2021/11/13 00:46:15;;;;;;;30.60;12.98;;;;;;;;;;5033143;28;20016;-83
2021/11/13 00:48:41;;;;;;;30.30;14.02;;;;;;;;;;5031789;28;20026;-83
2021/11/13 00:51:06;;;;;;;36.13;15.63;;;;;;;;;;5031826;28;20039;-83
2021/11/13 00:53:32;;;;;;;35.38;14.40;;;;;;;;;;5031996;28;20024;-83
2021/11/13 00:55:58;;;;;;;23.33;10.82;;;;;;;;;;5031224;28;20459;-84
2021/11/13 00:58:23;;;;;;;36.63;16.52;;;;;;;;;;5033504;28;20032;-83
2021/11/13 01:00:49;;;;;;;31.00;12.20;;;;;;;;;;5031686;28;20446;-83
2021/11/13 01:03:14;;;;;;;35.30;13.30;;;;;;;;;;5031625;28;20029;-83
2021/11/13 01:05:39;;;;;;;30.38;14.50;;;;;;;;;;5031619;28;20116;-83
2021/11/13 01:08:04;;;;;;;32.15;13.55;;;;;;;;;;5031664;28;20025;-83
2021/11/13 01:10:30;;;;;;;31.00;14.60;;;;;;;;;;5031688;28;20025;-84
2021/11/13 01:12:55;;;;;;;33.08;14.63;;;;;;;;;;5032748;28;20009;-84
2021/11/13 01:15:20;;;;;;;30.00;14.30;;;;;;;;;;5031412;28;20029;-83
2021/11/13 01:17:46;;;;;;;30.35;14.13;;;;;;;;;;5031522;28;20373;-84
2021/11/13 01:20:13;;;;;;;34.53;15.02;;;;;;;;;;5030377;28;20117;-83
2021/11/13 01:22:39;;;;;;;32.83;13.70;;;;;;;;;;5036076;28;20036;-84
2021/11/13 01:25:06;;;;;;;30.38;14.52;;;;;;;;;;5036170;28;20021;-84
2021/11/13 01:27:31;;;;;;;27.38;13.15;;;;;;;;;;5036270;28;20079;-83
2021/11/13 01:29:56;;;;;;;28.15;14.50;;;;;;;;;;5036414;28;20026;-84
2021/11/13 01:32:22;;;;;;;31.15;14.35;;;;;;;;;;5034318;28;20045;-83
2021/11/13 01:34:47;;;;;;;28.65;14.18;;;;;;;;;;5029645;28;20428;-84
2021/11/13 01:37:12;;;;;;;27.27;14.32;;;;;;;;;;5035991;28;20109;-84
2021/11/13 01:39:37;;;;;;;33.40;14.65;;;;;;;;;;5036826;28;20021;-83
2021/11/13 01:42:03;;;;;;;29.40;14.30;;;;;;;;;;5037534;28;20060;-83
2021/11/13 01:44:29;;;;;;;24.88;11.68;;;;;;;;;;5036127;28;20118;-83
2021/11/13 01:46:54;;;;;;;29.13;14.23;;;;;;;;;;5037735;28;20075;-83
2021/11/13 01:49:19;;;;;;;25.95;12.95;;;;;;;;;;5038911;28;20473;-83
2021/11/13 01:51:47;;;;;;;26.00;12.05;;;;;;;;;;5037441;28;20485;-83
2021/11/13 01:54:12;;;;;;;31.65;13.27;;;;;;;;;;5039097;28;20466;-83
2021/11/13 01:56:40;;;;;;;28.92;13.65;;;;;;;;;;5038262;28;20025;-84
2021/11/13 01:59:06;;;;;;;30.75;13.35;;;;;;;;;;5037641;28;20072;-83
2021/11/13 02:01:32;;;;;;;31.02;13.52;;;;;;;;;;5037758;28;20025;-84
2021/11/13 02:03:57;;;;;;;32.55;13.07;;;;;;;;;;5039049;28;20116;-84
2021/11/13 02:06:23;;;;;;;23.35;12.65;;;;;;;;;;5038947;28;20036;-83
2021/11/13 02:08:49;;;;;;;30.70;13.85;;;;;;;;;;5037193;28;20040;-84
2021/11/13 02:11:16;;;;;;;31.95;11.88;;;;;;;;;;5038597;28;20388;-84
2021/11/13 02:13:41;;;;;;;31.35;14.43;;;;;;;;;;5037631;28;20021;-84
2021/11/13 02:16:08;;;;;;;34.83;14.00;;;;;;;;;;5037370;28;20025;-84
2021/11/13 02:18:34;;;;;;;28.88;15.00;;;;;;;;;;5038991;28;20057;-83
2021/11/13 02:20:59;;;;;;;26.00;13.63;;;;;;;;;;5039077;28;20405;-84
2021/11/13 02:23:26;;;;;;;29.50;12.65;;;;;;;;;;5038705;28;20034;-83
2021/11/13 02:25:52;;;;;;;31.02;13.50;;;;;;;;;;5037097;28;20381;-84
2021/11/13 02:28:18;;;;;;;26.00;13.02;;;;;;;;;;5037381;28;20040;-83
2021/11/13 02:30:44;;;;;;;27.45;12.52;;;;;;;;;;5038157;28;20380;-84
2021/11/13 02:33:10;;;;;;;31.30;14.70;;;;;;;;;;5033230;28;20029;-84
2021/11/13 02:35:35;;;;;;;29.77;14.35;;;;;;;;;;5032738;28;20022;-84
2021/11/13 02:38:09;;;;;;;32.92;13.32;;;;;;;;;;5033879;28;20472;-83
2021/11/13 02:40:35;;;;;;;28.35;12.82;;;;;;;;;;5034099;28;20029;-84
2021/11/13 02:43:01;;;;;;;27.45;13.10;;;;;;;;;;5032615;28;20491;-84
2021/11/13 02:45:26;;;;;;;24.92;12.95;;;;;;;;;;5032799;28;20033;-84
2021/11/13 02:47:54;;;;;;;24.98;11.88;;;;;;;;;;5034089;28;20041;-83
2021/11/13 02:50:19;;;;;;;24.48;13.10;;;;;;;;;;5034321;28;20088;-84
2021/11/13 02:52:52;;;;;;;33.30;12.90;;;;;;;;;;5050720;28;20021;-84
2021/11/13 02:55:17;;;;;;;25.33;13.07;;;;;;;;;;5034938;28;20025;-84
2021/11/13 02:57:43;;;;;;;25.30;13.05;;;;;;;;;;5033511;28;20554;-84
2021/11/13 03:00:09;;;;;;;24.13;12.60;;;;;;;;;;5035150;28;20105;-84
2021/11/13 03:02:35;;;;;;;24.80;13.98;;;;;;;;;;5034086;28;20029;-84
2021/11/13 03:05:00;;;;;;;25.60;13.45;;;;;;;;;;5034969;28;20516;-84
2021/11/13 03:07:25;;;;;;;29.13;16.08;;;;;;;;;;5033510;28;20057;-84
2021/11/13 03:09:51;;;;;;;29.00;13.98;;;;;;;;;;5033696;28;20049;-84
2021/11/13 03:12:18;;;;;;;25.85;13.38;;;;;;;;;;5035004;28;20096;-84
2021/11/13 03:14:43;;;;;;;26.75;14.18;;;;;;;;;;5034735;28;20024;-84
2021/11/13 03:17:11;;;;;;;25.55;13.35;;;;;;;;;;5034519;28;20357;-83
2021/11/13 03:19:36;;;;;;;32.53;14.65;;;;;;;;;;5033521;28;20026;-83
2021/11/13 03:22:02;;;;;;;26.67;13.02;;;;;;;;;;5033289;28;20025;-84
2021/11/13 03:24:28;;;;;;;32.40;15.07;;;;;;;;;;5033665;28;20050;-83
2021/11/13 03:26:53;;;;;;;32.50;14.15;;;;;;;;;;5033048;28;20107;-83
2021/11/13 03:29:24;;;;;;;28.45;14.18;;;;;;;;;;5032788;28;20024;-83
2021/11/13 03:31:51;;;;;;;36.58;15.02;;;;;;;;;;5034643;28;20097;-84
2021/11/13 03:34:16;;;;;;;31.60;15.57;;;;;;;;;;5034447;28;20021;-83
2021/11/13 03:36:41;;;;;;;38.13;14.32;;;;;;;;;;5033037;28;20025;-83
2021/11/13 03:39:06;;;;;;;30.25;13.82;;;;;;;;;;5033095;28;20060;-83
2021/11/13 03:41:32;;;;;;;34.78;15.80;;;;;;;;;;5032677;28;20412;-83
2021/11/13 03:43:57;;;;;;;29.70;14.55;;;;;;;;;;5034364;28;20096;-83
2021/11/13 03:46:22;;;;;;;30.40;14.55;;;;;;;;;;5032749;28;20028;-83
2021/11/13 03:48:48;;;;;;;29.58;14.40;;;;;;;;;;5032953;28;20072;-84
2021/11/13 03:51:13;;;;;;;35.78;14.75;;;;;;;;;;5032907;28;20021;-84
2021/11/13 03:53:39;;;;;;;28.67;13.05;;;;;;;;;;5033523;28;20461;-83
2021/11/13 03:56:04;;;;;;;34.72;15.75;;;;;;;;;;5033474;28;20591;-83
2021/11/13 03:58:30;;;;;;;33.97;14.77;;;;;;;;;;5032565;28;20029;-83
2021/11/13 04:00:55;;;;;;;27.58;12.90;;;;;;;;;;5033897;28;20458;-83
2021/11/13 04:03:20;;;;;;;30.30;14.27;;;;;;;;;;5032606;28;20396;-83
2021/11/13 04:05:46;;;;;;;25.75;14.88;;;;;;;;;;5032407;28;20451;-83
2021/11/13 04:08:11;;;;;;;29.83;13.88;;;;;;;;;;5032596;28;20035;-84
2021/11/13 04:10:37;;;;;;;28.48;13.50;;;;;;;;;;5032335;28;20108;-83
2021/11/13 04:13:02;;;;;;;27.95;14.23;;;;;;;;;;5032344;28;20033;-83
2021/11/13 04:15:27;;;;;;;28.33;12.75;;;;;;;;;;5032364;28;20021;-84
2021/11/13 04:17:53;;;;;;;29.63;14.73;;;;;;;;;;5032565;28;20449;-83
2021/11/13 04:20:18;;;;;;;33.83;15.05;;;;;;;;;;5032281;28;20032;-83
2021/11/13 04:22:45;;;;;;;22.90;11.57;;;;;;;;;;5033476;28;20370;-83
2021/11/13 04:25:10;;;;;;;25.55;11.38;;;;;;;;;;5033360;28;20064;-83
2021/11/13 04:27:36;;;;;;;25.02;11.93;;;;;;;;;;5031936;28;20484;-83
2021/11/13 04:30:02;;;;;;;28.70;12.00;;;;;;;;;;5032242;28;20023;-84
2021/11/13 04:32:29;;;;;;;23.20;11.90;;;;;;;;;;5032031;28;20017;-83
2021/11/13 04:37:23;;;;;;;23.00;11.10;;;;;;;;;;5033339;28;20373;-83
2021/11/13 04:39:49;;;;;;;25.02;12.75;;;;;;;;;;5033330;28;20030;-84
2021/11/13 04:42:15;;;;;;;19.75;10.07;;;;;;;;;;5031970;28;20473;-84
2021/11/13 04:44:40;;;;;;;22.75;11.95;;;;;;;;;;5033113;28;20041;-83
2021/11/13 04:47:06;;;;;;;21.38;11.27;;;;;;;;;;5032046;28;20389;-83
2021/11/13 04:49:31;;;;;;;21.02;11.27;;;;;;;;;;5031809;28;20366;-83
2021/11/13 04:51:57;;;;;;;19.98;9.80;;;;;;;;;;5031787;28;20053;-84
2021/11/13 04:54:22;;;;;;;20.58;11.10;;;;;;;;;;5033247;28;20116;-83
2021/11/13 04:56:47;;;;;;;22.70;10.60;;;;;;;;;;5032481;28;20404;-84
2021/11/13 04:59:13;;;;;;;21.30;11.05;;;;;;;;;;5032968;28;20407;-83
2021/11/13 05:01:38;;;;;;;23.02;10.68;;;;;;;;;;5031754;28;20017;-84
2021/11/13 05:04:03;;;;;;;20.33;10.85;;;;;;;;;;5031618;28;20083;-83
2021/11/13 05:06:29;;;;;;;20.80;10.48;;;;;;;;;;5031476;28;20504;-83
2021/11/13 05:09:00;;;;;;;21.50;10.65;;;;;;;;;;5032668;28;20049;-83
2021/11/13 05:11:25;;;;;;;16.60;8.88;;;;;;;;;;5031654;28;20017;-83
2021/11/13 05:13:50;;;;;;;23.13;10.20;;;;;;;;;;5064720;28;20017;-83
2021/11/13 05:16:16;;;;;;;18.70;9.07;;;;;;;;;;5031563;28;20389;-84
2021/11/13 05:18:41;;;;;;;18.55;9.65;;;;;;;;;;5032345;28;20384;-83
2021/11/13 05:21:06;;;;;;;18.60;9.55;;;;;;;;;;5032612;28;20029;-83
2021/11/13 05:23:31;;;;;;;19.98;9.32;;;;;;;;;;5031598;28;20052;-83
2021/11/13 05:25:56;;;;;;;17.45;8.02;;;;;;;;;;5064892;28;20044;-83
2021/11/13 05:28:22;;;;;;;16.13;8.55;;;;;;;;;;5064553;28;20014;-84
2021/11/13 05:30:47;;;;;;;14.73;7.47;;;;;;;;;;5032467;28;20369;-83
2021/11/13 05:33:12;;;;;;;17.70;7.70;;;;;;;;;;5032584;28;20021;-84
2021/11/13 05:35:37;;;;;;;17.95;7.72;;;;;;;;;;5032639;28;20053;-83
2021/11/13 05:38:04;;;;;;;14.52;7.30;;;;;;;;;;5047962;28;20040;-83
2021/11/13 05:40:29;;;;;;;15.35;7.53;;;;;;;;;;5064753;28;20076;-83
2021/11/13 05:42:54;;;;;;;19.40;7.10;;;;;;;;;;5064591;28;20420;-83
2021/11/13 05:45:20;;;;;;;14.60;7.10;;;;;;;;;;5032634;28;20021;-83
2021/11/13 05:47:45;;;;;;;14.68;6.10;;;;;;;;;;5032212;28;20021;-83
2021/11/13 05:50:12;;;;;;;14.32;6.85;;;;;;;;;;5064456;28;20014;-84
2021/11/13 05:52:37;;;;;;;14.38;6.97;;;;;;;;;;5064582;28;20080;-83
2021/11/13 05:55:03;;;;;;;14.52;6.55;;;;;;;;;;5047749;28;20022;-83
2021/11/13 05:57:28;;;;;;;12.55;7.25;;;;;;;;;;5047486;28;20754;-84
2021/11/13 05:59:53;;;;;;;14.48;7.38;;;;;;;;;;5032364;28;20017;-83
2021/11/13 06:02:19;;;;;;;13.00;6.90;;;;;;;;;;5030854;28;20030;-83
2021/11/13 06:04:44;;;;;;;13.23;6.68;;;;;;;;;;5032583;28;20025;-83
2021/11/13 06:07:09;;;;;;;14.35;6.43;;;;;;;;;;5032119;28;20021;-84
2021/11/13 06:09:35;;;;;;;16.85;5.65;;;;;;;;;;5067233;28;20021;-83
2021/11/13 06:12:00;;;;;;;12.05;6.57;;;;;;;;;;5035786;28;20431;-83
2021/11/13 06:14:25;;;;;;;11.05;5.80;;;;;;;;;;5036211;28;20017;-83
2021/11/13 06:16:50;;;;;;;13.27;6.40;;;;;;;;;;5035195;28;20017;-83
2021/11/13 06:19:15;;;;;;;10.80;5.90;;;;;;;;;;5034806;28;20020;-83
2021/11/13 06:21:41;;;;;;;16.80;5.65;;;;;;;;;;5068057;28;20044;-83
2021/11/13 06:24:08;;;;;;;12.50;6.70;;;;;;;;;;5067608;28;20025;-83
2021/11/13 06:26:34;;;;;;;11.18;5.97;;;;;;;;;;5034631;28;20052;-83
2021/11/13 06:28:59;;;;;;;14.30;6.85;;;;;;;;;;5034280;28;20511;-83
2021/11/13 06:31:24;;;;;;;12.80;6.80;;;;;;;;;;5034353;28;20153;-84
2021/11/13 06:33:49;;;;;;;15.85;6.95;;;;;;;;;;5034469;28;20029;-84
2021/11/13 06:36:15;;;;;;;12.75;6.55;;;;;;;;;;5067768;28;20024;-84
2021/11/13 06:38:40;;;;;;;19.67;6.88;;;;;;;;;;5067777;28;20067;-84
2021/11/13 06:41:05;;;;;;;13.60;5.88;;;;;;;;;;5067626;28;20128;-84
2021/11/13 06:43:30;;;;;;;13.07;6.15;;;;;;;;;;5067495;28;20045;-84
2021/11/13 06:45:56;;;;;;;12.27;6.60;;;;;;;;;;5035554;28;20026;-84
2021/11/13 06:48:21;;;;;;;16.00;6.95;;;;;;;;;;5067381;28;20090;-84
2021/11/13 06:50:47;;;;;;;14.80;7.07;;;;;;;;;;5033674;28;20105;-84
2021/11/13 06:53:12;;;;;;;14.15;7.25;;;;;;;;;;5035260;28;20025;-83
2021/11/13 06:55:38;;;;;;;14.77;6.93;;;;;;;;;;5067390;28;20021;-84
2021/11/13 06:58:03;;;;;;;16.30;7.70;;;;;;;;;;5034090;28;20018;-84
2021/11/13 07:00:29;;;;;;;12.60;7.28;;;;;;;;;;5033864;28;20049;-84
2021/11/13 07:02:57;;;;;;;18.58;7.78;;;;;;;;;;5067446;28;20070;-84
2021/11/13 07:05:22;;;;;;;17.27;7.65;;;;;;;;;;5066689;28;20021;-83
2021/11/13 07:07:47;;;;;;;13.48;7.45;;;;;;;;;;5035090;28;20441;-84
2021/11/13 07:10:15;;;;;;;17.42;7.13;;;;;;;;;;5067198;28;20069;-84
2021/11/13 07:12:40;;;;;;;15.57;7.38;;;;;;;;;;5035180;28;20428;-83
2021/11/13 07:15:06;;;;;;;12.80;7.28;;;;;;;;;;5067163;28;20032;-84
2021/11/13 07:17:32;;;;;;;16.15;7.40;;;;;;;;;;5033600;28;20022;-83
2021/11/13 07:19:57;;;;;;;13.95;6.95;;;;;;;;;;5066080;28;20099;-84
2021/11/13 07:22:22;;;;;;;17.33;7.55;;;;;;;;;;5066718;28;20462;-83
2021/11/13 07:24:47;;;;;;;17.45;7.95;;;;;;;;;;5064497;28;20112;-84
2021/11/13 07:27:13;;;;;;;16.83;8.00;;;;;;;;;;5033714;28;20036;-84
2021/11/13 07:29:46;;;;;;;17.00;7.40;;;;;;;;;;5065808;28;20014;-83
2021/11/13 07:32:12;;;;;;;16.60;7.95;;;;;;;;;;5031383;28;20112;-84
2021/11/13 07:34:38;;;;;;;19.20;7.57;;;;;;;;;;5033260;28;20020;-83
2021/11/13 07:37:03;;;;;;;17.67;7.65;;;;;;;;;;5032143;28;20029;-84
2021/11/13 07:39:29;;;;;;;16.05;7.25;;;;;;;;;;5031715;28;20717;-84
2021/11/13 07:41:54;;;;;;;15.75;8.27;;;;;;;;;;5033601;28;20083;-84
2021/11/13 07:44:19;;;;;;;22.55;8.82;;;;;;;;;;5033283;28;20397;-84
2021/11/13 07:46:46;;;;;;;16.08;7.60;;;;;;;;;;5032207;28;20108;-84
2021/11/13 07:49:11;;;;;;;14.55;6.75;;;;;;;;;;5032530;28;20033;-84
2021/11/13 07:51:36;;;;;;;13.32;6.53;;;;;;;;;;5034194;28;20013;-84
2021/11/13 07:54:02;;;;;;;12.57;6.60;;;;;;;;;;5033639;28;20026;-84
2021/11/13 07:56:28;;;;;;;13.75;6.60;;;;;;;;;;5031611;28;20025;-83
2021/11/13 07:58:53;;;;;;;15.15;6.85;;;;;;;;;;5032361;28;20040;-84
2021/11/13 08:01:18;;;;;;;16.58;7.47;;;;;;;;;;5065997;28;20104;-84
2021/11/13 08:03:44;;;;;;;13.32;7.47;;;;;;;;;;5066130;28;20021;-84
2021/11/13 08:06:09;;;;;;;21.95;7.80;;;;;;;;;;5032720;28;20025;-84
2021/11/13 08:08:34;;;;;;;16.10;7.65;;;;;;;;;;5033469;28;20018;-84
2021/11/13 08:11:01;;;;;;;16.75;7.68;;;;;;;;;;5065733;28;20017;-84
2021/11/13 08:13:27;;;;;;;21.08;7.53;;;;;;;;;;5065819;28;20381;-84
2021/11/13 08:15:52;;;;;;;17.50;7.57;;;;;;;;;;5032308;28;20017;-84
2021/11/13 08:18:17;;;;;;;16.55;7.25;;;;;;;;;;5033785;28;20022;-84
2021/11/13 08:20:43;;;;;;;16.40;6.93;;;;;;;;;;5033811;28;20021;-84
2021/11/13 08:23:09;;;;;;;13.32;7.20;;;;;;;;;;5032446;28;20033;-84
2021/11/13 08:25:35;;;;;;;15.48;7.40;;;;;;;;;;5065535;28;20576;-84
2021/11/13 08:28:00;;;;;;;19.05;7.07;;;;;;;;;;5065726;28;20424;-84
2021/11/13 08:30:28;;;;;;;18.92;7.32;;;;;;;;;;5032787;28;20067;-84
2021/11/13 08:32:54;;;;;;;14.52;6.55;;;;;;;;;;5065461;28;20052;-84
2021/11/13 08:35:19;;;;;;;14.65;6.70;;;;;;;;;;5065612;28;20061;-84
2021/11/13 08:37:44;;;;;;;10.32;5.80;;;;;;;;;;5065066;28;20021;-84
2021/11/13 08:40:10;;;;;;;12.55;6.05;;;;;;;;;;5065470;28;20032;-84
2021/11/13 08:42:35;;;;;;;14.30;6.82;;;;;;;;;;5033228;28;20362;-84
2021/11/13 08:45:01;;;;;;;16.30;6.55;;;;;;;;;;5064489;28;20037;-84
2021/11/13 08:47:26;;;;;;;11.65;6.15;;;;;;;;;;5033245;28;20025;-84
2021/11/13 08:49:53;;;;;;;15.32;6.75;;;;;;;;;;5032933;28;20022;-84
2021/11/13 08:52:19;;;;;;;18.35;7.15;;;;;;;;;;5033146;28;20029;-84
2021/11/13 08:54:45;;;;;;;15.70;7.07;;;;;;;;;;5032698;28;20025;-84
2021/11/13 08:57:11;;;;;;;13.23;6.22;;;;;;;;;;5033017;28;20029;-84
2021/11/13 08:59:36;;;;;;;17.50;7.30;;;;;;;;;;5065023;28;20488;-84
2021/11/13 09:02:03;;;;;;;17.10;6.43;;;;;;;;;;5032599;28;20052;-84
2021/11/13 09:04:28;;;;;;;12.00;6.65;;;;;;;;;;5064897;28;20449;-84
2021/11/13 09:06:54;;;;;;;14.48;6.38;;;;;;;;;;5064445;28;20087;-84
2021/11/13 09:09:19;;;;;;;16.13;7.40;;;;;;;;;;5033125;28;20033;-84
2021/11/13 09:11:44;;;;;;;10.35;5.65;;;;;;;;;;5032764;28;20116;-84
2021/11/13 09:14:11;;;;;;;13.05;5.78;;;;;;;;;;5031789;28;20030;-84
2021/11/13 09:16:36;;;;;;;16.90;7.13;;;;;;;;;;5064799;28;20017;-84
2021/11/13 09:19:03;;;;;;;14.20;6.07;;;;;;;;;;5032721;28;20492;-84
2021/11/13 09:21:29;;;;;;;13.98;6.35;;;;;;;;;;5064997;28;20072;-84
2021/11/13 09:23:55;;;;;;;16.85;6.40;;;;;;;;;;5064687;28;20013;-84
2021/11/13 09:26:21;;;;;;;17.58;6.28;;;;;;;;;;5032456;28;20455;-84
2021/11/13 09:28:46;;;;;;;12.15;5.90;;;;;;;;;;5032375;28;20022;-85
2021/11/13 09:31:12;;;;;;;11.40;5.70;;;;;;;;;;5064496;28;20015;-85
2021/11/13 09:33:37;;;;;;;11.75;5.25;;;;;;;;;;5032764;28;20014;-84
2021/11/13 09:36:03;;;;;;;11.07;6.10;;;;;;;;;;5032610;28;20017;-84
2021/11/13 09:38:30;;;;;;;10.20;5.38;;;;;;;;;;5064908;28;20017;-84
2021/11/13 09:40:59;;;;;;;11.75;5.57;;;;;;;;;;5032263;28;20079;-84
2021/11/13 09:43:24;;;;;;;15.60;4.80;;;;;;;;;;5034059;28;20028;-84
2021/11/13 09:45:50;;;;;;;8.07;4.45;;;;;;;;;;5035240;28;20481;-84
2021/11/13 09:48:16;;;;;;;11.93;4.90;;;;;;;;;;5035266;28;20029;-84
2021/11/13 09:50:44;;;;;;;14.23;5.65;;;;;;;;;;5035430;28;20014;-85
2021/11/13 09:53:10;;;;;;;11.80;5.28;;;;;;;;;;5068305;28;20045;-84
2021/11/13 09:55:35;;;;;;;14.30;5.05;;;;;;;;;;5036377;28;20014;-85
2021/11/13 09:58:01;;;;;;;9.85;5.38;;;;;;;;;;5034544;28;20025;-84
2021/11/13 10:00:29;;;;;;;12.48;6.18;;;;;;;;;;5034891;28;20354;-84
2021/11/13 10:02:55;;;;;;;14.27;6.13;;;;;;;;;;5036041;28;20083;-84
2021/11/13 10:05:20;;;;;;;12.35;5.97;;;;;;;;;;5036117;28;20037;-84
2021/11/13 10:07:48;;;;;;;9.60;5.45;;;;;;;;;;5068188;28;20100;-84
2021/11/13 10:10:15;;;;;;;10.45;5.70;;;;;;;;;;5067957;28;20018;-84
2021/11/13 10:12:42;;;;;;;14.15;6.20;;;;;;;;;;5036121;28;20017;-85
2021/11/13 10:15:25;;;;;;;11.00;6.82;;;;;;;;;;5035779;28;20373;-84
2021/11/13 10:18:09;;;;;;;17.65;7.93;;;;;;;;;;5023429;28;20032;-84
2021/11/13 10:20:35;;;;;;;17.05;7.03;;;;;;;;;;5051367;28;20496;-84
2021/11/13 10:23:00;;;;;;;14.88;5.88;;;;;;;;;;5035762;28;20064;-84
2021/11/13 10:25:25;;;;;;;13.68;6.45;;;;;;;;;;5034604;28;20075;-84
2021/11/13 10:28:09;;;;;;;17.13;7.90;;;;;;;;;;5035811;28;20107;-84
2021/11/13 10:30:34;;;;;;;13.63;7.50;;;;;;;;;;5050857;28;20025;-84
2021/11/13 10:32:59;;;;;;;14.70;7.47;;;;;;;;;;5067780;28;20036;-84
2021/11/13 10:35:41;;;;;;;14.00;6.88;;;;;;;;;;5034381;28;20053;-84
2021/11/13 10:38:18;;;;;;;14.30;7.00;;;;;;;;;;5021788;28;20388;-84
2021/11/13 10:40:47;;;;;;;14.05;6.65;;;;;;;;;;5067604;28;20535;-84
2021/11/13 10:43:13;;;;;;;16.67;7.60;;;;;;;;;;5067435;28;20025;-84
2021/11/13 10:45:38;;;;;;;14.27;6.90;;;;;;;;;;5034125;28;20029;-84
2021/11/13 10:48:18;;;;;;;14.55;6.65;;;;;;;;;;5067321;28;20064;-84
2021/11/13 10:50:43;;;;;;;15.40;7.70;;;;;;;;;;5067746;28;20053;-84
2021/11/13 10:53:12;;;;;;;16.30;8.10;;;;;;;;;;5033687;28;20021;-84
2021/11/13 10:55:42;;;;;;;16.20;8.20;;;;;;;;;;5066946;28;20025;-84
2021/11/13 10:58:26;;;;;;;17.30;8.18;;;;;;;;;;5067268;28;20477;-84
2021/11/13 11:00:52;;;;;;;19.75;8.00;;;;;;;;;;5050442;28;20017;-84
2021/11/13 11:03:17;;;;;;;20.30;8.55;;;;;;;;;;5035062;28;20013;-84
2021/11/13 11:05:46;;;;;;;15.88;7.72;;;;;;;;;;5066762;28;20028;-84
2021/11/13 11:08:28;;;;;;;26.45;8.20;;;;;;;;;;5034770;28;20032;-84
2021/11/13 11:10:54;;;;;;;15.63;6.90;;;;;;;;;;5054540;28;20013;-84
2021/11/13 11:13:40;;;;;;;17.45;8.77;;;;;;;;;;5034924;28;20060;-84
2021/11/13 11:16:19;;;;;;;26.88;8.40;;;;;;;;;;5067137;28;20009;-84
2021/11/13 11:19:02;;;;;;;21.92;8.13;;;;;;;;;;5033631;28;20358;-84
2021/11/13 11:21:46;;;;;;;22.17;8.68;;;;;;;;;;5050342;28;20028;-84
2021/11/13 11:24:16;;;;;;;18.50;8.52;;;;;;;;;;5050048;28;20022;-84
2021/11/13 11:26:42;;;;;;;20.77;8.07;;;;;;;;;;5034611;28;20373;-84
2021/11/13 11:29:08;;;;;;;18.65;8.63;;;;;;;;;;5066759;28;20036;-84
2021/11/13 11:31:44;;;;;;;21.20;7.88;;;;;;;;;;5032762;28;20022;-84
2021/11/13 11:34:41;;;;;;;18.63;8.77;;;;;;;;;;5066911;28;20032;-84
2021/11/13 11:37:07;;;;;;;19.38;8.52;;;;;;;;;;5002912;28;20065;-84
2021/11/13 11:39:32;;;;;;;18.27;8.35;;;;;;;;;;5048817;28;20052;-84
2021/11/13 11:41:57;;;;;;;19.23;8.82;;;;;;;;;;5066476;28;20017;-84
2021/11/13 11:44:22;;;;;;;27.48;9.32;;;;;;;;;;5066596;28;20486;-84
2021/11/13 11:46:48;;;;;;;21.65;8.73;;;;;;;;;;5066199;28;20017;-84
2021/11/13 11:49:14;;;;;;;14.65;7.35;;;;;;;;;;5066570;28;20029;-84
2021/11/13 11:51:40;;;;;;;23.48;8.55;;;;;;;;;;5066455;28;20017;-84
2021/11/13 11:54:06;;;;;;;16.38;7.72;;;;;;;;;;5034641;28;20445;-84
2021/11/13 11:56:32;;;;;;;16.73;7.13;;;;;;;;;;5065869;28;20025;-84
2021/11/13 11:58:59;;;;;;;16.55;6.20;;;;;;;;;;5066360;28;20116;-84
2021/11/13 12:01:28;;;;;;;13.85;6.30;;;;;;;;;;5065862;28;20483;-84
2021/11/13 12:04:13;;;;;;;18.13;7.03;;;;;;;;;;5065750;28;20021;-84
2021/11/13 12:06:43;;;;;;;17.73;6.50;;;;;;;;;;5048926;28;20392;-84
2021/11/13 12:09:08;;;;;;;14.48;6.80;;;;;;;;;;5034279;28;20017;-83
2021/11/13 12:11:36;;;;;;;12.05;6.10;;;;;;;;;;5065970;28;20555;-84
2021/11/13 12:14:27;;;;;;;17.35;7.50;;;;;;;;;;5032565;28;20022;-83
2021/11/13 12:16:53;;;;;;;15.75;7.15;;;;;;;;;;5065645;28;20071;-84
2021/11/13 12:19:18;;;;;;;14.82;6.97;;;;;;;;;;5033919;28;20017;-84
2021/11/13 12:21:56;;;;;;;17.98;7.45;;;;;;;;;;5032703;28;20029;-84
2021/11/13 12:24:21;;;;;;;13.93;6.95;;;;;;;;;;5065879;28;20381;-84
2021/11/13 12:27:03;;;;;;;12.60;6.75;;;;;;;;;;5065148;28;20021;-84
2021/11/13 12:29:43;;;;;;;18.05;7.03;;;;;;;;;;5019969;28;20016;-84
2021/11/13 12:32:12;;;;;;;15.10;6.90;;;;;;;;;;5065265;28;20470;-83
2021/11/13 12:34:37;;;;;;;13.77;6.00;;;;;;;;;;5065541;28;20021;-84
2021/11/13 12:37:07;;;;;;;13.00;6.20;;;;;;;;;;5065549;28;20381;-84
2021/11/13 12:39:43;;;;;;;13.65;6.38;;;;;;;;;;5032206;28;20369;-84
2021/11/13 12:42:09;;;;;;;14.20;6.03;;;;;;;;;;5064972;28;20595;-84
2021/11/13 12:44:39;;;;;;;11.68;6.05;;;;;;;;;;5031983;28;20017;-84
2021/11/13 12:47:05;;;;;;;12.77;6.53;;;;;;;;;;5064436;28;20032;-84
2021/11/13 12:49:49;;;;;;;10.55;5.57;;;;;;;;;;5063805;28;20495;-84
2021/11/13 12:52:27;;;;;;;11.98;5.85;;;;;;;;;;5046828;28;20040;-84
2021/11/13 12:54:58;;;;;;;12.02;6.25;;;;;;;;;;5031805;28;20022;-84
2021/11/13 12:57:28;;;;;;;9.85;5.55;;;;;;;;;;5064882;28;20393;-84
2021/11/13 12:59:55;;;;;;;10.52;5.38;;;;;;;;;;5064470;28;20045;-83
2021/11/13 13:02:20;;;;;;;10.63;4.85;;;;;;;;;;5033054;28;20409;-84
2021/11/13 13:04:46;;;;;;;12.23;5.35;;;;;;;;;;5032733;28;20021;-83
2021/11/13 13:07:12;;;;;;;13.48;5.50;;;;;;;;;;5030985;28;20334;-83
2021/11/13 13:09:52;;;;;;;15.88;5.53;;;;;;;;;;5030707;28;20063;-84
2021/11/13 13:12:18;;;;;;;8.25;4.68;;;;;;;;;;5030803;28;20013;-84
2021/11/13 13:14:43;;;;;;;10.10;5.10;;;;;;;;;;5030331;28;20024;-84
2021/11/13 13:17:08;;;;;;;10.80;5.20;;;;;;;;;;5030290;28;20026;-83
2021/11/13 13:19:35;;;;;;;12.30;4.80;;;;;;;;;;5032112;28;20018;-84
2021/11/13 13:22:08;;;;;;;11.18;5.60;;;;;;;;;;5030043;28;20492;-84
2021/11/13 13:24:34;;;;;;;17.73;5.43;;;;;;;;;;5046725;28;20069;-84
2021/11/13 13:27:09;;;;;;;11.05;5.18;;;;;;;;;;5031151;28;20017;-84
2021/11/13 13:29:35;;;;;;;14.30;5.28;;;;;;;;;;5019840;28;20092;-84
2021/11/13 13:32:01;;;;;;;15.60;6.10;;;;;;;;;;5063076;28;20108;-84
2021/11/13 13:34:27;;;;;;;17.35;5.57;;;;;;;;;;5032287;28;20020;-84
2021/11/13 13:36:57;;;;;;;13.18;6.05;;;;;;;;;;5063737;28;20101;-86
2021/11/13 13:39:23;;;;;;;13.50;6.00;;;;;;;;;;5064128;28;20036;-84
2021/11/13 13:41:49;;;;;;;12.15;6.43;;;;;;;;;;5032259;28;20021;-84
2021/11/13 13:44:17;;;;;;;18.13;6.07;;;;;;;;;;5064530;28;20582;-84
2021/11/13 13:46:43;;;;;;;13.07;6.22;;;;;;;;;;5063561;28;20024;-84
2021/11/13 13:49:14;;;;;;;15.88;6.03;;;;;;;;;;5030738;28;20116;-84
2021/11/13 13:51:42;;;;;;;12.93;5.75;;;;;;;;;;5032208;28;20175;-84
2021/11/13 13:54:09;;;;;;;11.93;6.18;;;;;;;;;;5064336;28;20415;-84
2021/11/13 13:56:36;;;;;;;13.13;6.18;;;;;;;;;;5063802;28;20018;-84
2021/11/13 13:59:03;;;;;;;16.33;6.32;;;;;;;;;;5018458;28;20033;-84
2021/11/13 14:01:29;;;;;;;10.75;5.68;;;;;;;;;;5063813;28;20591;-84
2021/11/13 14:04:11;;;;;;;11.10;6.05;;;;;;;;;;5030778;28;20013;-84
2021/11/13 14:06:37;;;;;;;14.43;4.93;;;;;;;;;;5031876;28;20026;-84
2021/11/13 14:09:03;;;;;;;10.73;5.50;;;;;;;;;;5031191;28;20040;-84
2021/11/13 14:11:29;;;;;;;12.48;5.00;;;;;;;;;;5032172;28;20104;-84
2021/11/13 14:13:54;;;;;;;9.73;4.70;;;;;;;;;;5063815;28;20160;-84
2021/11/13 14:16:20;;;;;;;11.40;5.25;;;;;;;;;;5063525;28;20045;-84
2021/11/13 14:18:47;;;;;;;12.25;5.13;;;;;;;;;;5063954;28;20112;-84
2021/11/13 14:21:14;;;;;;;9.75;4.70;;;;;;;;;;5064283;28;20022;-84
2021/11/13 14:23:41;;;;;;;10.13;4.70;;;;;;;;;;5062920;28;20021;-83
2021/11/13 14:26:14;;;;;;;11.90;5.05;;;;;;;;;;5063248;28;20037;-85